Time;durP1;ratioP1;P1;durP2;ratioP2;P2;SDS_P1;SDS_P2;PMS_P1;PMS_P2;Temp;Humidity;BMP_temperature;BMP_pressure;BME280_temperature;BME280_humidity;BME280_pressure;Samples;Min_cycle;Max_cycle;Signal;HPM_P1;HPM_P2
2022/12/15 00:39:14;;;;;;;139.55;51.05;;;;;;;-8.89;100.00;100700.09;5162856;28;20030;-75
2022/12/15 00:41:45;;;;;;;146.65;51.50;;;;;;;-8.93;100.00;100699.34;5163799;28;20396;-74
2022/12/15 00:44:15;;;;;;;141.57;51.17;;;;;;;-8.98;100.00;100708.19;5163499;28;20026;-73
2022/12/15 00:46:54;;;;;;;128.07;49.40;;;;;;;-9.01;100.00;100713.47;5163411;28;20030;-73
2022/12/15 01:20:33;;;;;;;129.18;50.15;;;;;;;-8.90;100.00;100707.03;5162873;28;20105;-74
2022/12/15 01:23:04;;;;;;;135.18;48.75;;;;;;;-8.91;100.00;100709.69;5157206;28;20026;-73
2022/12/15 01:25:37;;;;;;;137.00;49.67;;;;;;;-8.97;100.00;100713.34;5162831;28;20083;-72
2022/12/15 01:28:07;;;;;;;124.80;48.20;;;;;;;-9.00;100.00;100713.41;5162113;28;20037;-72
2022/12/15 01:30:38;;;;;;;133.10;46.78;;;;;;;-9.13;100.00;100710.34;5162674;28;20392;-71
2022/12/15 01:33:08;;;;;;;125.45;45.88;;;;;;;-9.26;100.00;100703.81;5162558;28;20771;-72
2022/12/15 01:35:39;;;;;;;129.60;47.63;;;;;;;-9.31;100.00;100694.44;5162615;28;20168;-72
2022/12/15 01:38:10;;;;;;;139.60;50.05;;;;;;;-9.34;100.00;100705.75;5162195;28;20072;-73
2022/12/15 01:40:50;;;;;;;135.10;49.22;;;;;;;-9.30;100.00;100706.53;5162363;28;20488;-72
2022/12/15 01:43:24;;;;;;;136.82;48.95;;;;;;;-9.24;100.00;100721.94;5162787;28;20022;-72
2022/12/15 01:46:00;;;;;;;131.35;48.10;;;;;;;-9.21;100.00;100725.31;5162018;28;20443;-72
2022/12/15 01:48:46;;;;;;;142.82;48.60;;;;;;;-9.10;100.00;100718.94;5161758;28;20400;-72
2022/12/15 01:51:22;;;;;;;131.50;49.15;;;;;;;-9.09;100.00;100728.44;5162395;28;20033;-72
2022/12/15 01:54:08;;;;;;;134.18;48.40;;;;;;;-9.16;100.00;100726.03;5162208;28;20065;-72
2022/12/15 01:56:44;;;;;;;128.57;46.53;;;;;;;-9.19;100.00;100733.03;5162230;28;20030;-72
2022/12/15 01:59:23;;;;;;;136.25;49.25;;;;;;;-9.20;100.00;100739.16;5162225;28;20057;-71
2022/12/15 02:01:53;;;;;;;139.63;49.97;;;;;;;-9.23;100.00;100734.91;5162887;28;20022;-71
2022/12/15 02:04:24;;;;;;;138.00;47.65;;;;;;;-9.30;100.00;100746.34;5177922;28;20034;-71
2022/12/15 02:06:54;;;;;;;132.50;45.05;;;;;;;-9.42;100.00;100733.72;5162413;28;20026;-71
2022/12/15 02:09:26;;;;;;;127.72;48.67;;;;;;;-9.50;100.00;100746.06;5162749;28;20395;-71
2022/12/15 02:12:13;;;;;;;136.57;46.35;;;;;;;-9.51;100.00;100746.97;5162586;28;20022;-71
2022/12/15 02:15:08;;;;;;;133.77;48.28;;;;;;;-9.50;100.00;100749.50;5162236;28;20037;-72
2022/12/15 02:17:57;;;;;;;132.93;48.47;;;;;;;-9.48;100.00;100744.28;5161971;28;20037;-69
2022/12/15 02:20:39;;;;;;;126.82;47.00;;;;;;;-9.55;100.00;100753.13;5161157;28;20489;-70
2022/12/15 02:23:24;;;;;;;126.43;47.83;;;;;;;-9.59;100.00;100752.34;5162042;28;20038;-72
2022/12/15 02:26:19;;;;;;;131.02;45.40;;;;;;;-9.57;100.00;100767.91;5162289;28;20030;-72
2022/12/15 02:28:58;;;;;;;143.70;47.40;;;;;;;-9.53;100.00;100764.34;5162049;28;20038;-72
2022/12/15 02:31:48;;;;;;;124.70;46.15;;;;;;;-9.51;100.00;100752.16;5162246;28;20030;-73
2022/12/15 02:34:22;;;;;;;128.48;44.05;;;;;;;-9.47;100.00;100757.22;5162096;28;20049;-73
2022/12/15 02:37:10;;;;;;;126.95;48.03;;;;;;;-9.36;100.00;100754.31;5162063;28;20392;-71
2022/12/15 02:39:40;;;;;;;130.48;47.58;;;;;;;-9.32;100.00;100755.94;5162147;28;20408;-74
2022/12/15 02:42:12;;;;;;;131.02;44.92;;;;;;;-9.29;100.00;100744.59;5162273;28;20026;-74
2022/12/15 02:45:00;;;;;;;127.90;46.75;;;;;;;-9.23;100.00;100736.66;5162594;28;20041;-72
2022/12/15 02:47:47;;;;;;;132.57;45.58;;;;;;;-9.17;100.00;100742.53;5160916;28;20531;-73
2022/12/15 02:50:49;;;;;;;129.60;46.03;;;;;;;-9.15;100.00;100752.84;5160654;28;20400;-73
2022/12/15 02:53:23;;;;;;;124.43;45.58;;;;;;;-9.22;100.00;100761.75;5162221;28;20488;-73
2022/12/15 02:55:54;;;;;;;;;;;;;;;-9.30;100.00;100768.88;5162709;28;20515;-73
2022/12/15 02:58:47;;;;;;;119.55;43.78;;;;;;;-9.35;100.00;100770.75;5161586;28;19917;-72
2022/12/15 03:01:24;;;;;;;121.00;44.58;;;;;;;-9.38;100.00;100770.88;5162274;28;20506;-73
2022/12/15 03:03:56;;;;;;;128.15;43.25;;;;;;;-9.39;100.00;100769.97;5149451;28;20030;-72
2022/12/15 03:06:27;;;;;;;127.32;43.15;;;;;;;-9.40;100.00;100766.53;5161862;28;20054;-72
2022/12/15 03:08:58;;;;;;;119.50;42.72;;;;;;;-9.38;100.00;100769.13;5161512;28;20030;-71
2022/12/15 03:11:35;;;;;;;132.90;42.83;;;;;;;-9.35;100.00;100763.81;5161842;28;20108;-72
2022/12/15 03:14:06;;;;;;;116.50;44.97;;;;;;;-9.33;100.00;100758.59;5162158;28;20030;-71
2022/12/15 03:16:36;;;;;;;120.65;43.45;;;;;;;-9.33;100.00;100772.44;5161715;28;20037;-72
2022/12/15 03:19:07;;;;;;;130.63;45.58;;;;;;;-9.34;100.00;100778.50;5161747;28;20109;-72
2022/12/15 03:21:38;;;;;;;128.57;44.15;;;;;;;-9.35;100.00;100771.59;5161461;28;20507;-73
2022/12/15 03:24:08;;;;;;;115.40;43.47;;;;;;;-9.36;100.00;100775.09;5160743;28;20101;-72
2022/12/15 03:26:48;;;;;;;129.10;45.40;;;;;;;-9.37;100.00;100773.41;5161971;28;20114;-73
2022/12/15 03:29:19;;;;;;;124.50;45.42;;;;;;;-9.39;100.00;100777.78;5163946;28;20077;-72
2022/12/15 03:31:49;;;;;;;142.55;45.65;;;;;;;-9.40;100.00;100776.06;5165452;28;20022;-72
2022/12/15 03:34:20;;;;;;;116.88;42.80;;;;;;;-9.42;100.00;100776.13;5165660;28;20109;-72
2022/12/15 03:36:50;;;;;;;126.40;44.13;;;;;;;-9.46;100.00;100774.50;5165231;28;20142;-72
2022/12/15 03:39:21;;;;;;;104.95;40.70;;;;;;;-9.48;100.00;100775.47;5165653;28;20125;-72
2022/12/15 03:41:51;;;;;;;114.65;42.22;;;;;;;-9.46;100.00;100777.09;5165765;28;20041;-72
2022/12/15 03:44:22;;;;;;;126.70;42.53;;;;;;;-9.47;100.00;100774.56;5152069;28;20033;-72
2022/12/15 03:46:52;;;;;;;107.50;41.00;;;;;;;-9.46;100.00;100784.91;5164529;28;20030;-70
2022/12/15 03:49:22;;;;;;;121.70;42.72;;;;;;;-9.49;100.00;100779.78;5165185;28;20491;-71
2022/12/15 03:51:53;;;;;;;112.22;41.03;;;;;;;-9.51;100.00;100772.94;5164944;28;20031;-70
2022/12/15 03:54:23;;;;;;;114.07;42.08;;;;;;;-9.47;100.00;100775.41;5165169;28;20034;-70
2022/12/15 03:56:54;;;;;;;123.53;42.15;;;;;;;-9.44;100.00;100783.13;5164214;28;20022;-71
2022/12/15 03:59:24;;;;;;;113.13;41.75;;;;;;;-9.45;100.00;100780.56;5164998;28;20050;-70
2022/12/15 04:01:55;;;;;;;114.28;41.75;;;;;;;-9.46;100.00;100779.69;5164868;28;20102;-71
2022/12/15 04:04:25;;;;;;;117.60;41.58;;;;;;;-9.46;100.00;100784.91;5165202;28;20025;-71
2022/12/15 04:06:55;;;;;;;117.82;40.47;;;;;;;-9.47;100.00;100787.53;5164125;28;20037;-71
2022/12/15 04:09:26;;;;;;;104.70;40.65;;;;;;;-9.49;100.00;100789.31;5164337;28;20037;-71
2022/12/15 04:11:56;;;;;;;112.38;43.20;;;;;;;-9.51;100.00;100785.91;5164730;28;20727;-71
2022/12/15 04:14:27;;;;;;;99.00;38.25;;;;;;;-9.54;100.00;100781.63;5164575;28;20034;-71
2022/12/15 04:16:58;;;;;;;101.38;38.70;;;;;;;-9.52;100.00;100782.47;5164088;28;20018;-71
2022/12/15 04:22:17;;;;;;;123.03;42.05;;;;;;;-9.49;100.00;100794.50;5164326;28;20030;-71
2022/12/15 05:32:34;;;;;;;105.82;35.58;;;;;;;-9.97;100.00;100826.03;5163081;28;20022;-70
2022/12/15 05:35:05;;;;;;;101.88;35.63;;;;;;;-9.98;100.00;100827.78;5163172;28;20065;-70
2022/12/15 05:37:35;;;;;;;99.15;34.50;;;;;;;-9.96;100.00;100830.34;5162599;28;20018;-71
2022/12/15 05:40:07;;;;;;;110.07;36.47;;;;;;;-9.91;100.00;100823.28;5163095;28;20026;-71
2022/12/15 05:42:37;;;;;;;110.93;37.83;;;;;;;-9.89;100.00;100834.47;5163183;28;20038;-72
2022/12/15 05:45:09;;;;;;;107.10;38.63;;;;;;;-9.92;100.00;100832.81;5162520;28;20480;-71
2022/12/15 05:47:39;;;;;;;119.38;40.50;;;;;;;-9.98;100.00;100842.50;5177717;28;20077;-70
2022/12/15 05:50:10;;;;;;;110.20;38.85;;;;;;;-10.00;100.00;100839.94;5162868;28;20488;-72
2022/12/15 05:52:40;;;;;;;93.63;35.85;;;;;;;-10.02;100.00;100841.72;5162779;28;20026;-72
2022/12/15 05:55:11;;;;;;;102.32;36.55;;;;;;;-10.00;100.00;100833.88;5162925;28;20456;-72
2022/12/15 05:57:41;;;;;;;102.78;36.95;;;;;;;-9.98;100.00;100832.13;5161020;28;20106;-72
2022/12/15 06:00:12;;;;;;;102.10;37.13;;;;;;;-9.98;100.00;100834.72;5162686;28;20030;-71
2022/12/15 06:02:42;;;;;;;113.85;36.83;;;;;;;-9.95;100.00;100825.09;5162569;28;20026;-72
2022/12/15 06:05:13;;;;;;;103.68;35.85;;;;;;;-9.90;100.00;100830.19;5162359;28;20664;-72
2022/12/15 06:07:43;;;;;;;115.43;39.10;;;;;;;-9.88;100.00;100832.75;5161995;28;20030;-72
2022/12/15 06:10:14;;;;;;;113.28;38.95;;;;;;;-9.86;100.00;100829.22;5161885;28;20037;-71
2022/12/15 06:12:44;;;;;;;105.93;36.15;;;;;;;-9.82;100.00;100833.44;5162249;28;20025;-72
2022/12/15 06:15:15;;;;;;;100.78;36.78;;;;;;;-9.81;100.00;100837.75;5162239;28;20460;-72
2022/12/15 06:17:45;;;;;;;108.25;36.67;;;;;;;-9.79;100.00;100841.19;5161670;28;20018;-72
2022/12/15 06:20:16;;;;;;;108.90;37.55;;;;;;;-9.79;100.00;100848.97;5162200;28;20022;-71
2022/12/15 06:22:46;;;;;;;123.60;37.83;;;;;;;-9.79;100.00;100848.97;5176812;28;20534;-71
2022/12/15 06:25:17;;;;;;;107.22;37.13;;;;;;;-9.77;100.00;100847.16;5162096;28;20384;-72
2022/12/15 06:27:47;;;;;;;106.60;38.80;;;;;;;-9.76;100.00;100848.88;5161562;28;20026;-72
2022/12/15 06:30:18;;;;;;;113.85;37.42;;;;;;;-9.76;100.00;100851.47;5162136;28;20114;-72
2022/12/15 06:32:48;;;;;;;107.68;36.40;;;;;;;-9.77;100.00;100856.72;5162341;28;20105;-72
2022/12/15 06:35:20;;;;;;;106.38;36.78;;;;;;;-9.82;100.00;100854.22;5161823;28;20038;-71
2022/12/15 06:37:50;;;;;;;108.47;37.70;;;;;;;-9.84;100.00;100850.78;5161775;28;20022;-71
2022/12/15 06:40:20;;;;;;;98.25;35.63;;;;;;;-9.85;100.00;100843.91;5160913;28;20019;-71
2022/12/15 06:42:51;;;;;;;104.95;35.55;;;;;;;-9.81;100.00;100848.13;5162234;28;20022;-71
2022/12/15 06:45:21;;;;;;;98.45;34.92;;;;;;;-9.78;100.00;100845.47;5161981;28;20084;-71
2022/12/15 06:47:52;;;;;;;114.38;37.40;;;;;;;-9.76;100.00;100835.88;5161081;28;20030;-71
2022/12/15 06:50:22;;;;;;;113.40;37.78;;;;;;;-9.76;100.00;100833.28;5155840;28;20023;-71
2022/12/15 06:52:53;;;;;;;98.88;36.50;;;;;;;-9.78;100.00;100837.69;5157526;28;22109;-71
2022/12/15 06:55:23;;;;;;;105.70;37.65;;;;;;;-9.80;100.00;100833.41;5148942;28;20535;-71
2022/12/15 06:57:55;;;;;;;102.72;36.13;;;;;;;-9.81;100.00;100839.50;5160392;28;20026;-71
2022/12/15 07:00:26;;;;;;;98.15;36.38;;;;;;;-9.82;100.00;100843.84;5158713;28;20074;-71
2022/12/15 07:02:57;;;;;;;99.90;36.13;;;;;;;-9.81;100.00;100849.88;5161415;28;20029;-71
2022/12/15 07:05:27;;;;;;;105.55;34.35;;;;;;;-9.82;100.00;100842.97;5164255;28;20034;-71
2022/12/15 07:07:58;;;;;;;106.90;36.63;;;;;;;-9.81;100.00;100840.34;5163380;28;20033;-71
2022/12/15 07:10:28;;;;;;;98.22;35.70;;;;;;;-9.82;100.00;100842.97;5163648;28;20031;-71
2022/12/15 07:12:59;;;;;;;103.10;35.25;;;;;;;-9.83;100.00;100843.88;5163842;28;20026;-71
2022/12/15 07:15:30;;;;;;;101.35;35.42;;;;;;;-9.84;100.00;100844.75;5164208;28;20019;-71
2022/12/15 07:18:00;;;;;;;99.60;35.85;;;;;;;-9.83;100.00;100849.06;5163606;28;20460;-71
2022/12/15 07:20:31;;;;;;;109.93;37.65;;;;;;;-9.82;100.00;100849.03;5163916;28;20113;-71
2022/12/15 07:23:08;;;;;;;100.15;35.45;;;;;;;-9.82;100.00;100854.22;5163653;28;20076;-71
2022/12/15 07:25:39;;;;;;;99.32;35.42;;;;;;;-9.83;100.00;100862.91;5164124;28;20377;-71
2022/12/15 07:28:10;;;;;;;94.55;34.92;;;;;;;-9.85;100.00;100859.47;5178576;28;20033;-71
2022/12/15 07:30:40;;;;;;;105.97;36.28;;;;;;;-9.82;100.00;100863.75;5163701;28;20030;-71
2022/12/15 07:33:11;;;;;;;101.10;38.10;;;;;;;-9.82;100.00;100863.75;5164055;28;20041;-71
2022/12/15 07:35:41;;;;;;;107.18;35.35;;;;;;;-9.81;100.00;100858.50;5163342;28;20045;-71
2022/12/15 07:38:11;;;;;;;106.20;36.28;;;;;;;-9.77;100.00;100861.91;5163501;28;20018;-71
2022/12/15 07:40:42;;;;;;;96.10;32.60;;;;;;;-9.71;100.00;100859.13;5163565;28;20034;-71
2022/12/15 07:43:12;;;;;;;102.43;34.13;;;;;;;-9.65;100.00;100859.84;5163641;28;20049;-71
2022/12/15 07:45:43;;;;;;;102.85;37.38;;;;;;;-9.61;100.00;100860.63;5163667;28;20101;-71
2022/12/15 07:48:13;;;;;;;106.25;37.30;;;;;;;-9.57;100.00;100862.25;5162894;28;20030;-70
2022/12/15 07:50:44;;;;;;;106.93;35.28;;;;;;;-9.53;100.00;100863.88;5163118;28;20032;-71
2022/12/15 07:53:14;;;;;;;96.43;35.75;;;;;;;-9.43;100.00;100872.31;5178706;28;20487;-71
2022/12/15 07:55:52;;;;;;;94.65;36.95;;;;;;;-9.37;100.00;100871.28;5150806;28;20034;-71
2022/12/15 07:58:25;;;;;;;99.35;34.88;;;;;;;-9.38;100.00;100869.59;5162700;28;20018;-71
2022/12/15 08:01:03;;;;;;;97.32;37.53;;;;;;;-9.40;100.00;100875.66;5162890;28;20473;-71
2022/12/15 08:03:34;;;;;;;99.30;36.83;;;;;;;-9.40;100.00;100873.06;5163116;28;20065;-71
2022/12/15 08:06:10;;;;;;;96.85;35.70;;;;;;;-9.38;100.00;100870.44;5163355;28;20654;-71
2022/12/15 08:08:41;;;;;;;105.32;36.30;;;;;;;-9.37;100.00;100876.47;5162387;28;20026;-71
2022/12/15 08:11:14;;;;;;;99.03;35.85;;;;;;;-9.36;100.00;100872.97;5162239;28;20031;-71
2022/12/15 08:13:44;;;;;;;100.20;34.45;;;;;;;-9.34;100.00;100877.22;5161767;28;20396;-71
2022/12/15 08:16:15;;;;;;;103.07;35.83;;;;;;;-9.26;100.00;100884.84;5162232;28;20018;-71
2022/12/15 08:18:45;;;;;;;104.30;37.30;;;;;;;-9.18;100.00;100883.75;5162384;28;20058;-71
2022/12/15 08:21:16;;;;;;;104.03;35.40;;;;;;;-9.05;100.00;100893.81;5156990;28;20029;-71
2022/12/15 08:23:46;;;;;;;109.47;37.80;;;;;;;-8.91;100.00;100891.69;5161428;28;20023;-71
2022/12/15 08:26:18;;;;;;;105.63;36.78;;;;;;;-8.70;100.00;100892.84;5162654;28;20018;-72
2022/12/15 08:28:48;;;;;;;109.03;36.33;;;;;;;-8.31;100.00;100893.41;5162232;28;20049;-71
2022/12/15 08:31:21;;;;;;;99.07;36.30;;;;;;;-7.88;100.00;100902.47;5162447;28;20034;-71
2022/12/15 08:33:51;;;;;;;90.78;35.40;;;;;;;-7.30;100.00;100900.59;5166999;28;20042;-72
2022/12/15 08:36:22;;;;;;;102.78;37.10;;;;;;;-6.60;100.00;100905.94;5163052;28;20033;-72
2022/12/15 08:38:55;;;;;;;103.30;39.72;;;;;;;-5.97;100.00;100911.44;5164636;28;20030;-72
2022/12/15 08:41:31;;;;;;;90.90;37.45;;;;;;;-5.65;100.00;100920.56;5168967;28;20608;-71
2022/12/15 08:44:02;;;;;;;98.35;37.35;;;;;;;-5.17;100.00;100921.22;5161228;28;20108;-71
2022/12/15 08:46:33;;;;;;;84.38;36.25;;;;;;;-5.03;100.00;100927.56;5171190;28;20129;-71
2022/12/15 08:49:03;;;;;;;85.80;35.83;;;;;;;-4.93;100.00;100930.66;5161837;28;20085;-71
2022/12/15 08:51:34;;;;;;;87.70;34.13;;;;;;;-5.02;100.00;100929.28;5160904;28;20554;-71
2022/12/15 08:54:04;;;;;;;79.63;32.58;;;;;;;-5.04;100.00;100944.19;5161244;28;20052;-71
2022/12/15 08:56:35;;;;;;;70.95;32.08;;;;;;;-5.15;100.00;100951.63;5161150;28;20080;-72
2022/12/15 08:59:05;;;;;;;89.93;35.35;;;;;;;-5.12;100.00;100945.41;5159535;28;20156;-72
2022/12/15 09:01:38;;;;;;;76.68;32.47;;;;;;;-4.89;100.00;100953.16;5165380;28;20453;-72
2022/12/15 09:04:09;;;;;;;94.78;36.90;;;;;;;-4.60;100.00;100951.91;5161078;28;20067;-72
2022/12/15 09:06:40;;;;;;;78.95;35.95;;;;;;;-4.15;100.00;100949.91;5161073;28;20022;-72
2022/12/15 09:09:12;;;;;;;90.70;36.22;;;;;;;-3.79;100.00;100953.44;5160709;28;20186;-72
2022/12/15 09:11:43;;;;;;;89.13;37.42;;;;;;;-3.38;100.00;100953.22;5160189;28;20460;-72
2022/12/15 09:14:14;;;;;;;92.20;36.83;;;;;;;-2.92;100.00;100946.53;5159619;28;20029;-72
2022/12/15 09:16:45;;;;;;;85.40;35.50;;;;;;;-2.70;100.00;100948.09;5160866;28;20448;-72
2022/12/15 09:19:16;;;;;;;76.60;35.50;;;;;;;-2.52;100.00;100960.25;5164893;28;20014;-73
2022/12/15 09:21:47;;;;;;;83.75;39.45;;;;;;;-1.86;100.00;100959.34;5159690;28;20068;-72
2022/12/15 09:24:17;;;;;;;80.38;36.63;;;;;;;-1.92;100.00;100949.16;5160097;28;20092;-72
2022/12/15 09:26:48;;;;;;;94.47;37.88;;;;;;;-2.19;100.00;100957.63;5163105;28;20022;-72
2022/12/15 09:29:18;;;;;;;87.15;38.38;;;;;;;-1.94;100.00;100957.16;5159616;28;20085;-72
2022/12/15 09:31:49;;;;;;;94.47;38.47;;;;;;;-1.59;100.00;100968.38;5167804;28;20109;-72
2022/12/15 09:34:19;;;;;;;96.70;38.28;;;;;;;-1.32;100.00;100973.00;5158640;28;20026;-72
2022/12/15 09:36:49;;;;;;;96.70;40.25;;;;;;;-1.35;100.00;100979.31;5159850;28;20542;-72
2022/12/15 09:39:20;;;;;;;85.88;40.75;;;;;;;-1.22;100.00;100975.94;5169756;28;20113;-72
2022/12/15 09:41:54;;;;;;;104.53;40.13;;;;;;;-1.01;100.00;100989.66;5159897;28;20057;-72
2022/12/15 09:44:28;;;;;;;92.53;39.60;;;;;;;-0.86;100.00;100994.03;5159993;28;20026;-72
2022/12/15 09:47:19;;;;;;;83.78;37.08;;;;;;;-0.64;100.00;100993.66;5158941;28;20392;-73
2022/12/15 09:49:52;;;;;;;84.15;36.58;;;;;;;-0.63;100.00;100987.44;5159878;28;20053;-72
2022/12/15 09:52:29;;;;;;;76.70;33.75;;;;;;;-0.19;100.00;100989.19;5159726;28;20027;-72
2022/12/15 09:55:02;;;;;;;81.70;33.60;;;;;;;-0.47;100.00;100993.47;5159485;28;20080;-72
2022/12/15 09:57:43;;;;;;;80.60;34.50;;;;;;;-1.11;100.00;100989.34;5167225;28;20690;-72
2022/12/15 10:00:43;;;;;;;79.47;34.80;;;;;;;-1.54;100.00;100981.25;5159846;28;20435;-72
2022/12/15 10:04:00;;;;;;;81.25;34.03;;;;;;;-1.66;100.00;100982.78;5158517;28;20116;-72
2022/12/15 10:06:39;;;;;;;83.53;37.88;;;;;;;-1.61;100.00;100982.53;5165312;28;20052;-72
2022/12/15 10:09:27;;;;;;;76.25;31.67;;;;;;;-1.82;100.00;100988.03;5164111;28;20111;-72
2022/12/15 10:12:03;;;;;;;75.43;34.42;;;;;;;-1.98;100.00;100987.16;5159123;28;20041;-73
2022/12/15 10:14:41;;;;;;;83.32;36.00;;;;;;;-2.00;100.00;100978.53;5161103;28;20030;-72
2022/12/15 10:17:43;;;;;;;79.03;35.72;;;;;;;-1.70;100.00;100976.00;5167478;28;20034;-72
2022/12/15 10:20:21;;;;;;;82.47;34.22;;;;;;;-1.63;100.00;100972.09;5168496;28;20037;-72
2022/12/15 10:22:52;;;;;;;79.93;33.53;;;;;;;-1.54;100.00;100976.00;5163718;28;20026;-72
2022/12/15 10:25:25;;;;;;;84.43;35.35;;;;;;;-1.58;100.00;100974.47;5172133;28;20028;-70
2022/12/15 10:28:14;;;;;;;87.32;37.35;;;;;;;-1.68;100.00;100981.19;5170833;28;20041;-73
2022/12/15 10:31:01;;;;;;;81.40;37.78;;;;;;;-1.68;100.00;100983.81;5169813;28;20071;-72
2022/12/15 10:33:38;;;;;;;84.85;36.88;;;;;;;-1.54;100.00;100988.31;5170190;28;20415;-72
2022/12/15 10:36:11;;;;;;;86.90;35.10;;;;;;;-1.35;100.00;100984.56;5161783;28;20032;-72
2022/12/15 10:38:46;;;;;;;78.65;33.15;;;;;;;-1.15;100.00;100995.75;5163706;28;20042;-72
2022/12/15 10:41:24;;;;;;;82.75;33.63;;;;;;;-1.20;100.00;100989.91;5173498;28;20098;-73
2022/12/15 10:43:56;;;;;;;79.97;34.63;;;;;;;-0.98;100.00;100989.50;5173002;28;20030;-73
2022/12/15 10:46:29;;;;;;;76.97;33.47;;;;;;;-0.90;100.00;100985.50;5168928;28;20480;-73
2022/12/15 10:49:23;;;;;;;79.43;34.03;;;;;;;-0.84;100.00;100979.84;5162841;28;20476;-73
2022/12/15 10:51:56;;;;;;;75.60;31.30;;;;;;;-0.91;100.00;100985.56;5163020;28;20030;-73
2022/12/15 10:54:43;;;;;;;75.80;34.03;;;;;;;-0.97;100.00;100991.19;5162412;28;20047;-73
2022/12/15 10:57:19;;;;;;;81.75;33.72;;;;;;;-0.93;100.00;100997.97;5162785;28;20485;-73
2022/12/15 10:59:49;;;;;;;76.22;34.85;;;;;;;-0.83;100.00;100996.50;5171052;28;20109;-73
2022/12/15 11:02:20;;;;;;;88.47;36.47;;;;;;;-0.72;100.00;100991.44;5163148;28;20129;-73
2022/12/15 11:05:15;;;;;;;86.95;35.47;;;;;;;-0.63;100.00;100990.06;5163182;28;20038;-73
2022/12/15 11:08:12;;;;;;;91.57;38.13;;;;;;;-0.61;100.00;100991.66;5162035;28;20447;-73
2022/12/15 11:14:05;;;;;;;96.80;40.10;;;;;;;-0.55;100.00;100985.19;5163091;28;20022;-73
2022/12/15 11:16:45;;;;;;;87.88;36.63;;;;;;;-0.61;100.00;100985.53;5161973;28;20121;-74
2022/12/15 11:19:26;;;;;;;91.30;36.30;;;;;;;-0.61;100.00;100983.75;5162324;28;20030;-74
2022/12/15 11:22:09;;;;;;;84.50;34.75;;;;;;;-0.51;100.00;100981.41;5161975;28;20077;-72
2022/12/15 11:24:55;;;;;;;82.57;35.05;;;;;;;-0.39;100.00;100980.69;5161980;28;20034;-72
2022/12/15 11:27:37;;;;;;;79.43;33.42;;;;;;;-0.40;100.00;100980.78;5161940;28;20030;-71
2022/12/15 11:30:13;;;;;;;78.35;33.17;;;;;;;-0.43;100.00;100987.09;5168172;28;20022;-72
2022/12/15 11:32:45;;;;;;;;;;;;;;;-0.35;100.00;100982.22;5162934;28;20089;-72
2022/12/15 11:35:26;;;;;;;81.10;33.42;;;;;;;-0.36;100.00;100980.50;5162399;28;19932;-72
2022/12/15 11:38:19;;;;;;;78.07;35.15;;;;;;;-0.23;100.00;100977.97;5162467;28;20630;-72
2022/12/15 11:40:50;;;;;;;85.80;34.95;;;;;;;-0.13;100.00;100978.25;5162153;28;20037;-72
2022/12/15 11:43:31;;;;;;;83.65;35.30;;;;;;;-0.03;100.00;100974.09;5171126;28;20164;-72
2022/12/15 11:46:16;;;;;;;85.68;34.70;;;;;;;0.06;100.00;100959.50;5166057;28;20037;-72
2022/12/15 11:49:28;;;;;;;82.68;34.78;;;;;;;0.08;100.00;100952.31;5161116;28;20096;-72
2022/12/15 11:52:19;;;;;;;78.63;33.15;;;;;;;0.29;100.00;100955.41;5160128;28;20030;-71
2022/12/15 11:54:59;;;;;;;71.00;31.63;;;;;;;0.36;100.00;100949.66;5161784;28;20038;-72
2022/12/15 11:57:56;;;;;;;78.97;33.65;;;;;;;0.28;100.00;100949.28;5161011;28;20010;-72
2022/12/15 12:00:34;;;;;;;69.22;32.50;;;;;;;0.34;100.00;100948.03;5160977;28;20396;-72
2022/12/15 12:03:23;;;;;;;69.50;31.63;;;;;;;0.31;100.00;100941.19;5161270;28;20027;-73
2022/12/15 12:06:08;;;;;;;79.55;33.70;;;;;;;0.35;100.00;100949.72;5159332;28;20026;-73
2022/12/15 12:08:52;;;;;;;83.07;32.10;;;;;;;0.38;100.00;100941.63;5159523;28;20039;-73
2022/12/15 12:11:34;;;;;;;68.80;31.27;;;;;;;0.46;100.00;100942.81;5163211;28;20053;-73
2022/12/15 12:14:38;;;;;;;78.28;31.80;;;;;;;0.43;100.00;100937.72;5162008;28;20097;-73
2022/12/15 12:17:44;;;;;;;128.68;57.53;;;;;;;0.56;100.00;100940.44;5160712;28;20054;-73
2022/12/15 12:20:44;;;;;;;83.18;33.95;;;;;;;0.49;100.00;100939.97;5161392;28;20026;-73
2022/12/15 12:23:21;;;;;;;65.50;30.90;;;;;;;0.55;100.00;100944.00;5163276;28;20037;-73
2022/12/15 12:26:30;;;;;;;80.10;33.30;;;;;;;0.59;100.00;100934.94;5161488;28;20034;-73
2022/12/15 12:29:03;;;;;;;76.45;33.15;;;;;;;0.66;100.00;100936.25;5160623;28;20065;-73
2022/12/15 12:31:49;;;;;;;77.63;33.20;;;;;;;0.74;100.00;100933.09;5172248;28;20364;-73
2022/12/15 12:34:36;;;;;;;79.63;32.53;;;;;;;0.82;100.00;100935.25;5163488;28;20117;-73
2022/12/15 12:37:23;;;;;;;66.60;30.45;;;;;;;0.85;100.00;100925.28;5160706;28;20022;-73
2022/12/15 12:40:01;;;;;;;76.90;31.10;;;;;;;0.88;100.00;100925.09;5164299;28;20030;-73
2022/12/15 12:42:45;;;;;;;66.63;31.08;;;;;;;0.96;100.00;100921.97;5163062;28;20029;-73
2022/12/15 12:45:16;;;;;;;73.88;30.23;;;;;;;1.03;100.00;100917.94;5160931;28;20052;-74
2022/12/15 12:47:52;;;;;;;73.15;30.63;;;;;;;1.09;100.00;100914.03;5160728;28;20488;-73
2022/12/15 12:50:26;;;;;;;69.32;29.55;;;;;;;1.08;100.00;100915.84;5160534;28;20061;-74
2022/12/15 12:52:59;;;;;;;64.85;29.17;;;;;;;1.11;100.00;100906.88;5167571;28;20357;-73
2022/12/15 12:55:40;;;;;;;71.13;28.83;;;;;;;1.18;100.00;100903.69;5160636;28;20033;-73
2022/12/15 12:58:31;;;;;;;68.20;31.23;;;;;;;1.15;100.00;100895.97;5160519;28;20019;-73
2022/12/15 13:01:17;;;;;;;62.78;28.02;;;;;;;1.15;100.00;100882.75;5158181;28;20062;-73
2022/12/15 13:04:05;;;;;;;69.15;30.00;;;;;;;1.20;100.00;100885.94;5155126;28;20392;-73
2022/12/15 13:06:38;;;;;;;69.03;30.55;;;;;;;1.24;100.00;100887.41;5154108;28;20336;-73
2022/12/15 13:09:18;;;;;;;65.70;29.83;;;;;;;1.24;100.00;100892.69;5155381;28;20034;-73
2022/12/15 13:11:49;;;;;;;64.57;29.90;;;;;;;1.24;100.00;100886.56;5154276;28;20068;-73
2022/12/15 13:14:37;;;;;;;60.88;28.50;;;;;;;1.20;100.00;100878.00;5155024;28;20081;-73
2022/12/15 13:17:39;;;;;;;67.78;29.90;;;;;;;1.17;100.00;100872.94;5154559;28;20543;-72
2022/12/15 13:20:25;;;;;;;61.53;28.27;;;;;;;1.17;100.00;100878.22;5149520;28;20134;-73
2022/12/15 13:23:18;;;;;;;67.47;28.10;;;;;;;1.17;100.00;100869.47;5154469;28;20408;-73
2022/12/15 13:25:51;;;;;;;62.08;28.50;;;;;;;1.08;100.00;100865.63;5155210;28;20488;-73
2022/12/15 13:28:22;;;;;;;67.28;28.70;;;;;;;1.01;100.00;100867.88;5155744;28;20034;-73
2022/12/15 13:31:17;;;;;;;66.53;28.25;;;;;;;0.99;100.00;100866.25;5154186;28;20041;-73
2022/12/15 13:33:54;;;;;;;72.53;29.40;;;;;;;0.97;100.00;100861.09;5185363;28;20053;-73
2022/12/15 13:36:37;;;;;;;60.85;28.90;;;;;;;0.98;100.00;100857.50;5154092;28;20038;-73
2022/12/15 13:39:11;;;;;;;70.78;32.22;;;;;;;0.91;100.00;100847.47;5154454;28;20038;-73
2022/12/15 13:41:47;;;;;;;72.03;31.38;;;;;;;0.81;100.00;100852.53;5153519;28;20500;-73
2022/12/15 13:44:43;;;;;;;62.75;28.08;;;;;;;0.81;100.00;100851.69;5154082;28;20061;-73
2022/12/15 13:47:19;;;;;;;64.18;29.05;;;;;;;0.83;100.00;100847.97;5153860;28;20025;-72
2022/12/15 13:49:59;;;;;;;76.00;31.42;;;;;;;0.83;100.00;100847.97;5154202;28;20166;-72
2022/12/15 13:53:05;;;;;;;68.63;30.70;;;;;;;0.90;100.00;100851.88;5152892;28;20507;-73
2022/12/15 13:55:45;;;;;;;61.88;27.48;;;;;;;0.96;100.00;100848.00;5164281;28;20050;-72
2022/12/15 13:58:17;;;;;;;72.10;29.85;;;;;;;1.00;100.00;100841.53;5154035;28;20097;-72
2022/12/15 14:00:53;;;;;;;64.35;29.00;;;;;;;1.01;100.00;100837.97;5153441;28;20572;-72
2022/12/15 14:03:24;;;;;;;73.22;30.88;;;;;;;0.95;100.00;100835.72;5160726;28;20061;-72